Wetterstation Tischlerei-Herzog
Wetterdaten: aktuell Samstag, 25.06.2022 22:07
Datum Zeit Temp. N Temp. S Temp. Htte Aussentemp. Temp. Bo Feuchte Htt Luftfeuchte Luftdruck Niederschl. Taupunkt
25.06.2022 22:07 20,4 C 21,2 C 21,5 C 20,4 C 22,1 C 20 % 41 % 1009,5 hPa 0,0 l/m 6,7 C
25.06.2022 21:07 24,1 C 24,2 C 25,4 C 24,1 C 22,3 C 20 % 33 % 1009,0 hPa 0,0 l/m 6,8 C
25.06.2022 20:07 31,5 C 26,0 C 27,3 C 26,0 C 22,3 C 20 % 25 % 1008,7 hPa 0,0 l/m 4,4 C
25.06.2022 19:07 32,1 C 27,5 C 28,4 C 27,5 C 22,4 C 20 % 20 % 1007,4 hPa 0,0 l/m 2,5 C
25.06.2022 18:07 26,7 C 27,7 C 27,0 C 26,7 C 22,4 C 20 % 20 % 1008,6 hPa 0,0 l/m 1,9 C
25.06.2022 17:07 27,8 C 27,0 C 26,6 C 27,0 C 22,3 C 20 % 21 % 1008,6 hPa 0,0 l/m 2,8 C
25.06.2022 16:07 28,4 C 26,9 C 27,0 C 26,9 C 22,2 C 20 % 20 % 1008,6 hPa 0,0 l/m 2,0 C
25.06.2022 15:07 27,0 C 26,9 C 26,7 C 26,9 C 21,9 C 20 % 21 % 1008,6 hPa 0,0 l/m 2,7 C
25.06.2022 14:07 27,1 C 28,5 C 27,0 C 27,1 C 21,5 C 20 % 20 % 1008,5 hPa 0,0 l/m 2,2 C
25.06.2022 13:07 26,7 C 28,1 C 26,6 C 26,7 C 21,0 C 20 % 22 % 1008,6 hPa 0,0 l/m 3,2 C
25.06.2022 12:07 24,9 C 25,9 C 24,9 C 24,9 C 20,4 C 20 % 30 % 1009,9 hPa 0,0 l/m 6,1 C
25.06.2022 11:07 28,0 C 26,0 C 24,1 C 26,0 C 20,0 C 20 % 31 % 1009,7 hPa 0,0 l/m 7,5 C
25.06.2022 10:07 20,7 C 21,7 C 21,1 C 20,7 C 19,8 C 21 % 39 % 1010,5 hPa 0,0 l/m 6,2 C
25.06.2022 09:07 20,0 C 20,3 C 20,4 C 20,0 C 19,8 C 24 % 42 % 1010,6 hPa 0,0 l/m 6,7 C
25.06.2022 08:07 20,9 C 20,8 C 20,5 C 20,8 C 19,9 C 23 % 41 % 1009,4 hPa 0,0 l/m 7,1 C
25.06.2022 07:07 19,1 C 19,3 C 19,0 C 19,1 C 19,9 C 29 % 44 % 1009,7 hPa 0,0 l/m 6,6 C
25.06.2022 06:07 17,4 C 17,8 C 17,4 C 17,4 C 20,0 C 36 % 47 % 1008,9 hPa 0,0 l/m 6,0 C
25.06.2022 05:07 16,4 C 17,1 C 16,7 C 16,4 C 20,2 C 37 % 48 % 1009,1 hPa 0,0 l/m 5,4 C
25.06.2022 04:07 16,4 C 17,5 C 17,5 C 16,4 C 20,5 C 33 % 46 % 1009,1 hPa 0,0 l/m 4,8 C
25.06.2022 03:07 17,2 C 17,4 C 17,1 C 17,2 C 20,7 C 34 % 45 % 1007,9 hPa 0,0 l/m 5,2 C
25.06.2022 02:07 16,8 C 17,5 C 17,1 C 16,8 C 21,1 C 40 % 47 % 1008,0 hPa 0,0 l/m 5,4 C
25.06.2022 01:07 17,7 C 18,0 C 17,7 C 17,7 C 21,4 C 40 % 46 % 1006,8 hPa 0,0 l/m 5,9 C
25.06.2022 00:07 17,3 C 18,4 C 18,2 C 17,3 C 21,7 C 43 % 53 % 1006,8 hPa 0,0 l/m 7,6 C
24.06.2022 23:07 19,0 C 19,7 C 19,4 C 19,0 C 22,0 C 41 % 51 % 1005,5 hPa 0,0 l/m 8,6 C
24.06.2022 23:02 19,1 C 19,7 C 19,5 C 19,1 C 22,0 C 40 % 51 % 1005,5 hPa 0,0 l/m 8,7 C
_ Min-Zeit 04:22 05:27 05:17 04:22 07:37 10:22 13:22 23:02 - 13:52
Minimum _ 16,1 C 17,0 C 16,6 C 16,1 C 19,8 C 20 % 20 % 1005,5 hPa - 1,6 C
_ Max-Zeit 19:02 13:27 19:32 15:27 17:12 00:22 23:42 08:57 23:02 23:02
Maximum _ 32,8 C 30,0 C 28,7 C 28,6 C 22,4 C 46 % 53 % 1010,6 hPa 0,0 l/m 8,7 C
Durchschnitt _ 22,4 C 22,4 C 22,2 C 22,0 C 21,2 C 28 % 36 % 1008,4 hPa #0,0 l/m 5,4 C
Tischlerei Herzog